createdAt,value
2018-06-23T00:00:09.374Z,81.89
2018-06-23T00:01:09.360Z,82.28
2018-06-23T00:02:09.330Z,82.75
2018-06-23T00:03:09.390Z,82.84
2018-06-23T00:04:09.318Z,82.28
2018-06-23T00:05:09.342Z,82.08
2018-06-23T00:06:09.356Z,81.79
2018-06-23T00:07:09.355Z,82.75
2018-06-23T00:08:09.319Z,82.65
2018-06-23T00:09:09.330Z,82.18
2018-06-23T00:10:09.310Z,82.08
2018-06-23T00:11:09.332Z,81.70
2018-06-23T00:12:09.310Z,81.99
2018-06-23T00:13:09.338Z,81.89
2018-06-23T00:14:09.347Z,82.18
2018-06-23T00:15:09.324Z,82.65
2018-06-23T00:16:09.353Z,82.37
2018-06-23T00:17:09.329Z,82.71
2018-06-23T00:18:09.297Z,83.38
2018-06-23T00:19:09.338Z,83.23
2018-06-23T00:20:09.315Z,82.90
2018-06-23T00:21:09.296Z,83.23
2018-06-23T00:22:09.317Z,82.84
2018-06-23T00:23:09.277Z,82.46
2018-06-23T00:24:09.288Z,82.81
2018-06-23T00:25:09.309Z,83.67
2018-06-23T00:26:09.287Z,83.09
2018-06-23T00:27:09.267Z,83.51
2018-06-23T00:28:09.284Z,83.13
2018-06-23T00:29:09.289Z,82.65
2018-06-23T00:30:09.292Z,83.04
2018-06-23T00:31:09.274Z,82.75
2018-06-23T00:32:09.277Z,82.65
2018-06-23T00:33:09.256Z,82.52
2018-06-23T00:34:09.256Z,83.38
2018-06-23T00:35:09.274Z,83.95
2018-06-23T00:36:09.278Z,83.99
2018-06-23T00:37:09.272Z,83.09
2018-06-23T00:38:09.278Z,83.70
2018-06-23T00:39:09.235Z,83.33
2018-06-23T00:40:09.235Z,82.32
2018-06-23T00:41:09.237Z,82.75
2018-06-23T00:42:09.246Z,82.56
2018-06-23T00:43:09.244Z,83.18
2018-06-23T00:44:09.266Z,82.81
2018-06-23T00:45:09.253Z,83.00
2018-06-23T00:46:09.394Z,82.81
2018-06-23T00:47:09.246Z,83.95
2018-06-23T00:48:09.251Z,82.71
2018-06-23T00:49:09.221Z,82.71
2018-06-23T00:50:09.217Z,82.42
2018-06-23T00:51:09.216Z,82.32
2018-06-23T00:52:09.209Z,82.08
2018-06-23T00:53:09.224Z,82.61
2018-06-23T00:54:09.225Z,82.32
2018-06-23T00:55:09.906Z,81.70
2018-06-23T00:56:10.398Z,82.81
2018-06-23T00:57:10.272Z,82.71
2018-06-23T00:58:09.379Z,82.42
2018-06-23T00:59:11.014Z,82.81
2018-06-23T01:00:10.240Z,82.81
2018-06-23T01:01:09.882Z,82.42
2018-06-23T01:02:10.311Z,83.00
2018-06-23T01:03:10.244Z,82.71
2018-06-23T01:04:09.266Z,83.18
2018-06-23T01:05:10.145Z,82.71
2018-06-23T01:06:09.262Z,82.32
2018-06-23T01:07:09.737Z,82.23
2018-06-23T01:08:10.639Z,81.99
2018-06-23T01:09:10.718Z,82.32
2018-06-23T01:10:09.197Z,82.42
2018-06-23T01:11:09.192Z,82.71
2018-06-23T01:12:09.219Z,82.52
2018-06-23T01:13:09.870Z,82.23
2018-06-23T01:14:10.817Z,82.61
2018-06-23T01:15:09.228Z,82.81
2018-06-23T01:16:10.197Z,82.32
2018-06-23T01:17:09.157Z,82.42
2018-06-23T01:18:10.256Z,82.81
2018-06-23T01:19:10.225Z,82.52
2018-06-23T01:20:10.706Z,82.71
2018-06-23T01:21:10.328Z,82.52
2018-06-23T01:22:10.655Z,82.71
2018-06-23T01:23:10.658Z,82.61
2018-06-23T01:24:10.655Z,82.04
2018-06-23T01:25:10.248Z,82.61
2018-06-23T01:26:09.885Z,83.18
2018-06-23T01:27:10.165Z,82.81
2018-06-23T01:28:10.210Z,82.42
2018-06-23T01:29:10.257Z,82.32
2018-06-23T01:30:10.149Z,82.71
2018-06-23T01:31:10.661Z,83.18
2018-06-23T01:32:10.484Z,83.47
2018-06-23T01:33:10.149Z,83.18
2018-06-23T01:34:10.145Z,82.90
2018-06-23T01:35:10.648Z,82.90
2018-06-23T01:36:10.717Z,82.52
2018-06-23T01:37:09.708Z,82.61
2018-06-23T01:38:10.116Z,82.81
2018-06-23T01:39:10.102Z,83.00
2018-06-23T01:40:10.170Z,82.71
2018-06-23T01:41:10.158Z,82.61
2018-06-23T01:42:10.438Z,82.81
2018-06-23T01:43:10.149Z,83.00
2018-06-23T01:44:10.525Z,83.00
2018-06-23T01:45:10.164Z,82.90
2018-06-23T01:46:10.175Z,83.00
2018-06-23T01:48:10.163Z,82.61
2018-06-23T01:49:10.140Z,82.61
2018-06-23T01:50:10.661Z,83.00
2018-06-23T01:51:10.171Z,82.52
2018-06-23T01:52:09.164Z,83.18
2018-06-23T01:53:10.213Z,83.09
2018-06-23T01:54:11.653Z,83.43
2018-06-23T01:55:10.208Z,84.00
2018-06-23T01:56:09.832Z,83.72
2018-06-23T01:57:09.833Z,83.57
2018-06-23T01:58:10.164Z,83.09
2018-06-23T01:59:09.083Z,83.18
2018-06-23T02:00:10.463Z,83.18
2018-06-23T02:01:10.080Z,83.67
2018-06-23T02:02:10.667Z,83.05
2018-06-23T02:03:10.032Z,83.91
2018-06-23T02:04:10.152Z,83.95
2018-06-23T02:05:10.171Z,83.53
2018-06-23T02:06:10.169Z,83.53
2018-06-23T02:07:10.440Z,83.53
2018-06-23T02:08:10.457Z,83.72
2018-06-23T02:09:09.026Z,83.62
2018-06-23T02:10:10.172Z,83.67
2018-06-23T02:11:09.723Z,83.38
2018-06-23T02:12:09.766Z,83.86
2018-06-23T02:13:09.749Z,83.81
2018-06-23T02:14:10.653Z,84.29
2018-06-23T02:15:10.010Z,84.33
2018-06-23T02:16:09.937Z,84.39
2018-06-23T02:17:10.683Z,84.39
2018-06-23T02:18:10.693Z,84.20
2018-06-23T02:19:09.007Z,84.58
2018-06-23T02:20:10.721Z,84.58
2018-06-23T02:21:09.695Z,84.39
2018-06-23T02:22:10.172Z,84.48
2018-06-23T02:23:10.168Z,84.67
2018-06-23T02:25:10.144Z,85.25
2018-06-23T02:26:10.657Z,85.25
2018-06-23T02:27:10.658Z,85.34
2018-06-23T02:28:10.103Z,85.53
2018-06-23T02:29:10.470Z,85.44
2018-06-23T02:30:10.676Z,84.86
2018-06-23T02:31:10.159Z,84.48
2018-06-23T02:32:09.712Z,85.05
2018-06-23T02:33:09.917Z,84.77
2018-06-23T02:34:09.984Z,84.86
2018-06-23T02:35:09.958Z,84.96
2018-06-23T02:36:09.964Z,84.67
2018-06-23T02:37:10.674Z,84.77
2018-06-23T02:38:12.164Z,84.67
2018-06-23T02:39:10.662Z,84.77
2018-06-23T02:40:10.487Z,84.67
2018-06-23T02:41:10.660Z,84.48
2018-06-23T02:42:10.477Z,84.67
2018-06-23T02:43:09.754Z,84.39
2018-06-23T02:44:10.018Z,84.67
2018-06-23T02:45:09.961Z,84.67
2018-06-23T02:47:12.700Z,84.48
2018-06-23T02:48:09.991Z,85.15
2018-06-23T02:49:10.692Z,85.25
2018-06-23T02:50:10.690Z,84.96
2018-06-23T02:51:10.697Z,85.25
2018-06-23T02:52:10.676Z,85.53
2018-06-23T02:53:10.171Z,84.96
2018-06-23T02:54:09.666Z,84.96
2018-06-23T02:55:09.694Z,85.44
2018-06-23T02:56:10.029Z,86.39
2018-06-23T02:57:10.665Z,86.58
2018-06-23T02:58:09.997Z,86.39
2018-06-23T02:59:10.682Z,86.20
2018-06-23T03:00:10.502Z,86.39
2018-06-23T03:01:09.916Z,86.87
2018-06-23T03:02:10.471Z,86.58
2018-06-23T03:03:10.433Z,86.58
2018-06-23T03:04:09.916Z,86.30
2018-06-23T03:05:09.607Z,86.68
2018-06-23T03:06:09.909Z,86.49
2018-06-23T03:07:10.469Z,87.06
2018-06-23T03:08:10.404Z,86.96
2018-06-23T03:09:10.215Z,87.02
2018-06-23T03:10:10.460Z,87.59
2018-06-23T03:11:10.729Z,87.82
2018-06-23T03:12:10.701Z,86.68
2018-06-23T03:13:10.042Z,87.25
2018-06-23T03:14:09.860Z,86.58
2018-06-23T03:15:09.981Z,86.68
2018-06-23T03:16:10.167Z,86.68
2018-06-23T03:17:10.667Z,86.39
2018-06-23T03:18:10.498Z,86.87
2018-06-23T03:19:10.172Z,86.30
2018-06-23T03:20:12.680Z,86.96
2018-06-23T03:21:10.701Z,86.68
2018-06-23T03:22:08.816Z,87.06
2018-06-23T03:23:10.668Z,87.73
2018-06-23T03:24:09.532Z,86.96
2018-06-23T03:25:10.170Z,86.77
2018-06-23T03:26:10.220Z,86.87
2018-06-23T03:27:08.796Z,86.68
2018-06-23T03:28:10.734Z,86.96
2018-06-23T03:29:08.816Z,87.73
2018-06-23T03:30:10.517Z,87.44
2018-06-23T03:31:09.882Z,87.82
2018-06-23T03:32:08.783Z,87.15
2018-06-23T03:33:10.680Z,87.06
2018-06-23T03:34:10.170Z,87.25
2018-06-23T03:35:09.483Z,87.44
2018-06-23T03:36:10.174Z,87.73
2018-06-23T03:37:08.806Z,88.11
2018-06-23T03:38:09.789Z,86.96
2018-06-23T03:39:08.765Z,87.35
2018-06-23T03:40:09.449Z,87.63
2018-06-23T03:41:09.699Z,87.73
2018-06-23T03:42:10.334Z,86.58
2018-06-23T03:43:08.765Z,87.06
2018-06-23T03:44:09.473Z,86.96
2018-06-23T03:45:09.468Z,86.87
2018-06-23T03:46:09.457Z,87.63
2018-06-23T03:47:09.809Z,87.06
2018-06-23T03:48:09.896Z,87.06
2018-06-23T03:49:08.746Z,87.35
2018-06-23T03:50:10.157Z,87.25
2018-06-23T03:51:10.131Z,87.06
2018-06-23T03:52:09.692Z,87.73
2018-06-23T03:53:10.540Z,87.63
2018-06-23T03:54:09.748Z,87.25
2018-06-23T03:55:09.943Z,87.15
2018-06-23T03:56:09.732Z,87.82
2018-06-23T03:57:09.349Z,87.73
2018-06-23T03:58:10.217Z,87.73
2018-06-23T03:59:09.783Z,87.82
2018-06-23T04:00:08.688Z,87.92
2018-06-23T04:01:09.738Z,88.59
2018-06-23T04:02:09.747Z,89.25
2018-06-23T04:03:10.136Z,89.25
2018-06-23T04:04:10.007Z,88.97
2018-06-23T04:05:09.814Z,90.02
2018-06-23T04:06:09.695Z,90.02
2018-06-23T04:07:09.721Z,90.02
2018-06-23T04:08:09.393Z,90.21
2018-06-23T04:09:09.448Z,89.64
2018-06-23T04:10:09.733Z,90.31
2018-06-23T04:11:09.667Z,90.11
2018-06-23T04:12:09.382Z,90.21
2018-06-23T04:13:10.096Z,90.88
2018-06-23T04:14:10.281Z,91.36
2018-06-23T04:15:10.199Z,91.16
2018-06-23T04:16:09.775Z,91.83
2018-06-23T04:17:10.199Z,91.93
2018-06-23T04:18:09.791Z,92.02
2018-06-23T04:19:09.335Z,91.83
2018-06-23T04:20:09.967Z,91.55
2018-06-23T04:21:09.631Z,92.12
2018-06-23T04:22:10.018Z,92.21
2018-06-23T04:23:10.008Z,91.93
2018-06-23T04:24:09.701Z,92.69
2018-06-23T04:25:10.199Z,92.50
2018-06-23T04:26:10.139Z,93.02
2018-06-23T04:27:08.624Z,93.02
2018-06-23T04:28:09.682Z,93.26
2018-06-23T04:29:10.098Z,93.22
2018-06-23T04:30:08.738Z,93.07
2018-06-23T04:31:09.718Z,93.26
2018-06-23T04:32:09.681Z,93.55
2018-06-23T04:33:09.972Z,93.46
2018-06-23T04:34:09.676Z,93.26
2018-06-23T04:35:09.988Z,93.46
2018-06-23T04:36:09.667Z,92.69
2018-06-23T04:37:09.685Z,93.46
2018-06-23T04:38:10.077Z,93.46
2018-06-23T04:39:09.992Z,93.26
2018-06-23T04:40:10.200Z,93.65
2018-06-23T04:41:09.322Z,93.07
2018-06-23T04:42:09.311Z,94.12
2018-06-23T04:43:09.545Z,93.84
2018-06-23T04:44:09.724Z,94.22
2018-06-23T04:45:10.030Z,94.12
2018-06-23T04:46:09.630Z,93.55
2018-06-23T04:47:09.594Z,93.26
2018-06-23T04:48:16.009Z,94.03
2018-06-23T04:49:09.643Z,94.22
2018-06-23T04:50:08.558Z,94.12
2018-06-23T04:51:09.301Z,94.22
2018-06-23T04:52:09.307Z,93.93
2018-06-23T04:53:09.288Z,94.41
2018-06-23T04:54:09.644Z,95.08
2018-06-23T04:55:08.552Z,94.70
2018-06-23T04:56:10.165Z,95.65
2018-06-23T04:57:10.000Z,96.13
2018-06-23T04:58:16.188Z,97.08
2018-06-23T04:59:08.548Z,96.98
2018-06-23T05:00:08.658Z,97.47
2018-06-23T05:01:09.858Z,97.75
2018-06-23T05:02:11.028Z,97.47
2018-06-23T05:03:09.232Z,96.70
2018-06-23T05:04:09.667Z,96.80
2018-06-23T05:05:08.577Z,97.85
2018-06-23T05:06:09.702Z,97.75
2018-06-23T05:07:09.706Z,97.47
2018-06-23T05:08:09.750Z,97.37
2018-06-23T05:09:08.510Z,97.37
2018-06-23T05:10:08.613Z,97.47
2018-06-23T05:11:08.517Z,97.08
2018-06-23T05:12:09.226Z,96.98
2018-06-23T05:13:08.522Z,97.47
2018-06-23T05:14:09.232Z,97.75
2018-06-23T05:15:09.900Z,97.56
2018-06-23T05:16:09.199Z,97.66
2018-06-23T05:17:09.195Z,98.71
2018-06-23T05:18:16.242Z,98.03
2018-06-23T05:19:08.514Z,97.85
2018-06-23T05:20:09.551Z,97.27
2018-06-23T05:21:10.249Z,96.51
2018-06-23T05:22:09.774Z,96.42
2018-06-23T05:23:16.062Z,97.27
2018-06-23T05:24:10.022Z,97.47
2018-06-23T05:25:09.262Z,97.37
2018-06-23T05:26:09.573Z,97.94
2018-06-23T05:27:09.513Z,97.66
2018-06-23T05:28:13.476Z,97.27
2018-06-23T05:29:09.725Z,96.89
2018-06-23T05:30:10.052Z,96.75
2018-06-23T05:31:09.770Z,96.42
2018-06-23T05:32:09.516Z,96.80
2018-06-23T05:33:09.182Z,96.61
2018-06-23T05:34:08.456Z,96.70
2018-06-23T05:35:10.050Z,96.70
2018-06-23T05:36:09.263Z,96.80
2018-06-23T05:37:09.518Z,97.42
2018-06-23T05:38:08.471Z,96.89
2018-06-23T05:39:09.753Z,97.08
2018-06-23T05:40:09.521Z,97.08
2018-06-23T05:41:10.022Z,96.80
2018-06-23T05:42:09.457Z,97.08
2018-06-23T05:43:09.197Z,96.61
2018-06-23T05:44:09.496Z,96.66
2018-06-23T05:45:09.483Z,96.66
2018-06-23T05:46:09.467Z,96.56
2018-06-23T05:47:09.607Z,95.70
2018-06-23T05:48:08.418Z,96.46
2018-06-23T05:49:09.760Z,95.32
2018-06-23T05:50:09.449Z,95.89
2018-06-23T05:51:10.049Z,95.70
2018-06-23T05:52:09.570Z,95.41
2018-06-23T05:53:08.420Z,95.70
2018-06-23T05:54:10.521Z,95.32
2018-06-23T05:55:09.223Z,95.51
2018-06-23T05:56:09.431Z,95.41
2018-06-23T05:57:09.776Z,95.70
2018-06-23T05:58:09.573Z,95.22
2018-06-23T05:59:09.709Z,94.55
2018-06-23T06:00:10.022Z,94.84
2018-06-23T06:01:09.994Z,94.89
2018-06-23T06:02:09.478Z,94.89
2018-06-23T06:03:10.439Z,94.31
2018-06-23T06:04:09.780Z,93.74
2018-06-23T06:05:10.573Z,93.98
2018-06-23T06:06:09.495Z,93.98
2018-06-23T06:07:09.811Z,94.07
2018-06-23T06:08:10.219Z,94.17
2018-06-23T06:09:09.553Z,94.02
2018-06-23T06:10:09.781Z,93.55
2018-06-23T06:11:09.764Z,93.36
2018-06-23T06:12:09.756Z,93.55
2018-06-23T06:13:10.307Z,93.07
2018-06-23T06:14:10.039Z,93.55
2018-06-23T06:15:09.774Z,93.07
2018-06-23T06:16:11.315Z,92.40
2018-06-23T06:17:09.359Z,92.21
2018-06-23T06:18:09.734Z,91.54
2018-06-23T06:19:09.844Z,90.88
2018-06-23T06:20:09.538Z,90.92
2018-06-23T06:21:09.773Z,90.73
2018-06-23T06:22:11.273Z,90.73
2018-06-23T06:23:11.783Z,90.73
2018-06-23T06:24:09.773Z,90.06
2018-06-23T06:25:09.732Z,90.16
2018-06-23T06:26:09.311Z,89.58
2018-06-23T06:27:11.783Z,89.29
2018-06-23T06:28:09.708Z,89.01
2018-06-23T06:29:08.298Z,88.62
2018-06-23T06:30:09.733Z,88.62
2018-06-23T06:31:09.287Z,88.57
2018-06-23T06:32:09.742Z,88.29
2018-06-23T06:33:09.717Z,88.48
2018-06-23T06:34:10.003Z,88.09
2018-06-23T06:35:09.766Z,87.90
2018-06-23T06:36:09.203Z,87.33
2018-06-23T06:37:08.960Z,86.66
2018-06-23T06:38:10.042Z,86.76
2018-06-23T06:39:08.310Z,86.37
2018-06-23T06:40:09.004Z,86.71
2018-06-23T06:41:08.984Z,86.52
2018-06-23T06:42:08.912Z,86.61
2018-06-23T06:43:12.211Z,86.94
2018-06-23T06:44:08.251Z,86.33
2018-06-23T06:45:09.031Z,86.52
2018-06-23T06:46:09.012Z,86.76
2018-06-23T06:47:09.394Z,85.57
2018-06-23T06:48:09.721Z,85.41
2018-06-23T06:49:08.278Z,85.71
2018-06-23T06:50:09.539Z,84.65
2018-06-23T06:51:09.295Z,84.46
2018-06-23T06:52:09.280Z,84.22
2018-06-23T06:53:08.258Z,84.22
2018-06-23T06:54:08.931Z,83.98
2018-06-23T06:55:09.302Z,84.36
2018-06-23T06:56:09.777Z,84.84
2018-06-23T06:57:09.749Z,84.84
2018-06-23T06:58:09.728Z,85.13
2018-06-23T06:59:09.431Z,85.32
2018-06-23T07:00:09.739Z,85.41
2018-06-23T07:01:09.728Z,85.03
2018-06-23T07:02:09.777Z,85.22
2018-06-23T07:03:08.220Z,85.32
2018-06-23T07:04:08.957Z,84.84
2018-06-23T07:05:09.273Z,84.65
2018-06-23T07:06:09.750Z,84.55
2018-06-23T07:07:09.339Z,84.84
2018-06-23T07:08:08.206Z,84.46
2018-06-23T07:09:09.744Z,84.94
2018-06-23T07:10:09.796Z,84.46
2018-06-23T07:11:09.563Z,84.46
2018-06-23T07:12:09.600Z,84.22
2018-06-23T07:13:08.199Z,83.36
2018-06-23T07:14:10.020Z,83.06
2018-06-23T07:15:08.864Z,83.36
2018-06-23T07:16:09.372Z,83.16
2018-06-23T07:17:09.797Z,84.22
2018-06-23T07:18:08.196Z,83.83
2018-06-23T07:19:09.765Z,83.16
2018-06-23T07:20:09.239Z,83.54
2018-06-23T07:21:09.280Z,84.02
2018-06-23T07:22:09.333Z,83.06
2018-06-23T07:23:08.260Z,83.83
2018-06-23T07:24:11.404Z,83.36
2018-06-23T07:25:09.241Z,82.97
2018-06-23T07:26:08.935Z,82.40
2018-06-23T07:27:08.182Z,82.40
2018-06-23T07:28:09.018Z,82.59
2018-06-23T07:29:09.774Z,81.82
2018-06-23T07:30:09.787Z,81.05
2018-06-23T07:31:10.281Z,80.58
2018-06-23T07:32:09.748Z,80.58
2018-06-23T07:33:09.242Z,80.96
2018-06-23T07:34:09.584Z,80.10
2018-06-23T07:35:09.743Z,79.43
2018-06-23T07:36:10.103Z,79.95
2018-06-23T07:37:08.952Z,79.37
2018-06-23T07:38:09.375Z,79.43
2018-06-23T07:39:09.316Z,79.43
2018-06-23T07:40:09.741Z,79.52
2018-06-23T07:41:09.567Z,80.04
2018-06-23T07:42:09.196Z,79.66
2018-06-23T07:43:11.402Z,79.72
2018-06-23T07:44:09.236Z,78.95
2018-06-23T07:45:09.292Z,79.62
2018-06-23T07:46:09.260Z,79.47
2018-06-23T07:47:11.788Z,78.57
2018-06-23T07:48:09.290Z,78.22
2018-06-23T07:49:09.506Z,78.42
2018-06-23T07:50:09.189Z,78.89
2018-06-23T07:51:09.197Z,78.51
2018-06-23T07:52:09.309Z,78.22
2018-06-23T07:53:09.585Z,77.97
2018-06-23T07:54:09.622Z,76.40
2018-06-23T07:55:09.874Z,76.21
2018-06-23T07:56:09.348Z,76.15
2018-06-23T07:57:09.844Z,75.87
2018-06-23T07:58:09.523Z,75.87
2018-06-23T07:59:08.170Z,75.20
2018-06-23T08:00:09.507Z,74.82
2018-06-23T08:01:09.467Z,75.10
2018-06-23T08:02:08.900Z,75.35
2018-06-23T08:03:08.878Z,75.16
2018-06-23T08:04:10.102Z,74.97
2018-06-23T08:05:09.656Z,74.87
2018-06-23T08:06:09.629Z,75.16
2018-06-23T08:07:08.169Z,75.16
2018-06-23T08:08:09.606Z,75.26
2018-06-23T08:09:08.124Z,75.16
2018-06-23T08:10:08.847Z,74.68
2018-06-23T08:11:09.297Z,74.43
2018-06-23T08:12:09.766Z,73.95
2018-06-23T08:13:09.499Z,73.86
2018-06-23T08:14:09.253Z,72.80
2018-06-23T08:15:08.128Z,71.75
2018-06-23T08:16:15.644Z,71.75
2018-06-23T08:17:09.773Z,71.46
2018-06-23T08:18:09.315Z,71.21
2018-06-23T08:19:08.184Z,71.11
2018-06-23T08:20:09.516Z,70.54
2018-06-23T08:21:09.216Z,70.64
2018-06-23T08:22:09.830Z,71.46
2018-06-23T08:23:08.134Z,71.17
2018-06-23T08:24:09.480Z,71.17
2018-06-23T08:25:09.505Z,70.98
2018-06-23T08:26:08.169Z,70.70
2018-06-23T08:27:09.217Z,70.73
2018-06-23T08:28:10.254Z,70.15
2018-06-23T08:29:09.840Z,69.68
2018-06-23T08:30:09.651Z,69.42
2018-06-23T08:31:10.193Z,69.52
2018-06-23T08:32:08.860Z,68.75
2018-06-23T08:33:09.260Z,68.85
2018-06-23T08:34:09.234Z,69.13
2018-06-23T08:35:08.112Z,69.23
2018-06-23T08:36:09.544Z,69.52
2018-06-23T08:37:09.550Z,69.33
2018-06-23T08:38:09.187Z,69.42
2018-06-23T08:39:09.298Z,69.33
2018-06-23T08:40:09.151Z,69.39
2018-06-23T08:41:09.625Z,69.48
2018-06-23T08:42:09.260Z,69.20
2018-06-23T08:43:08.774Z,69.68
2018-06-23T08:44:09.245Z,69.29
2018-06-23T08:45:11.764Z,68.81
2018-06-23T08:46:08.884Z,69.10
2018-06-23T08:47:08.198Z,69.58
2018-06-23T08:48:08.111Z,69.01
2018-06-23T08:49:09.709Z,69.29
2018-06-23T08:50:09.616Z,68.52
2018-06-23T08:51:09.749Z,67.95
2018-06-23T08:52:09.634Z,68.43
2018-06-23T08:53:09.765Z,67.50
2018-06-23T08:54:09.042Z,66.83
2018-06-23T08:55:08.896Z,66.96
2018-06-23T08:56:09.717Z,66.29
2018-06-23T08:57:09.210Z,66.10
2018-06-23T08:58:09.818Z,66.39
2018-06-23T08:59:09.561Z,66.58
2018-06-23T09:00:09.266Z,66.74
2018-06-23T09:01:09.832Z,67.02
2018-06-23T09:02:09.175Z,66.93
2018-06-23T09:03:09.867Z,67.22
2018-06-23T09:04:09.548Z,67.22
2018-06-23T09:05:08.827Z,67.41
2018-06-23T09:06:09.080Z,67.12
2018-06-23T09:07:09.170Z,67.12
2018-06-23T09:08:09.616Z,67.89
2018-06-23T09:09:09.678Z,67.12
2018-06-23T09:10:09.620Z,67.41
2018-06-23T09:11:09.783Z,66.35
2018-06-23T09:12:09.265Z,65.81
2018-06-23T09:13:09.787Z,65.72
2018-06-23T09:14:09.819Z,66.19
2018-06-23T09:15:09.631Z,65.23
2018-06-23T09:16:09.315Z,65.23
2018-06-23T09:17:09.565Z,65.91
2018-06-23T09:18:09.713Z,65.91
2018-06-23T09:19:09.800Z,66.58
2018-06-23T09:20:09.326Z,66.49
2018-06-23T09:21:09.863Z,66.49
2018-06-23T09:22:09.636Z,66.00
2018-06-23T09:23:09.623Z,66.19
2018-06-23T09:24:09.259Z,66.39
2018-06-23T09:25:09.625Z,66.39
2018-06-23T09:26:08.083Z,66.35
2018-06-23T09:27:09.106Z,66.96
2018-06-23T09:28:09.847Z,66.77
2018-06-23T09:29:08.104Z,66.67
2018-06-23T09:30:09.660Z,66.03
2018-06-23T09:31:09.634Z,64.40
2018-06-23T09:32:09.313Z,64.40
2018-06-23T09:33:09.214Z,63.64
2018-06-23T09:34:09.632Z,64.12
2018-06-23T09:35:09.779Z,64.98
2018-06-23T09:36:09.692Z,64.47
2018-06-23T09:37:09.332Z,64.47
2018-06-23T09:38:10.649Z,64.56
2018-06-23T09:39:08.110Z,65.01
2018-06-23T09:41:42.484Z,67.16
2018-06-23T09:42:42.001Z,66.93
2018-06-23T09:44:36.775Z,68.18
2018-06-23T09:45:36.143Z,67.44
2018-06-23T09:47:30.703Z,67.63
2018-06-23T09:48:29.325Z,66.96
2018-06-23T09:50:24.694Z,67.16
2018-06-23T09:51:25.248Z,66.71
2018-06-23T09:53:19.405Z,65.75
2018-06-23T09:54:19.202Z,66.03
2018-06-23T09:56:13.969Z,65.69
2018-06-23T09:57:12.565Z,65.40
2018-06-23T09:59:07.480Z,64.34
2018-06-23T10:00:08.851Z,63.67
2018-06-23T10:02:01.791Z,62.93
2018-06-23T10:03:01.716Z,62.42
2018-06-23T10:04:57.673Z,63.09
2018-06-23T10:05:56.410Z,63.48
2018-06-23T10:07:50.210Z,62.52
2018-06-23T10:08:52.508Z,63.09
2018-06-23T10:10:43.910Z,62.55
2018-06-23T10:11:44.861Z,62.55
2018-06-23T10:13:39.912Z,61.97
2018-06-23T10:14:37.906Z,60.72
2018-06-23T10:16:33.634Z,62.04
2018-06-23T10:17:33.836Z,61.84
2018-06-23T10:19:27.644Z,61.84
2018-06-23T10:20:28.167Z,61.87
2018-06-23T10:22:22.309Z,60.50
2018-06-23T10:23:22.215Z,60.60
2018-06-23T10:25:16.237Z,62.19
2018-06-23T10:26:15.128Z,61.75
2018-06-23T10:28:11.705Z,60.82
2018-06-23T10:29:10.080Z,59.86
2018-06-23T10:31:05.173Z,59.95
2018-06-23T10:32:04.910Z,59.66
2018-06-23T10:33:58.875Z,59.57
2018-06-23T10:34:58.816Z,59.86
2018-06-23T10:36:52.998Z,59.44
2018-06-23T10:37:54.383Z,59.47
2018-06-23T10:39:47.417Z,59.12
2018-06-23T10:40:47.170Z,58.80
2018-06-23T10:42:41.392Z,59.89
2018-06-23T10:43:42.395Z,58.92
2018-06-23T10:45:35.866Z,58.35
2018-06-23T10:46:37.407Z,58.15
2018-06-23T10:48:28.649Z,57.99
2018-06-23T10:49:30.530Z,57.22
2018-06-23T10:51:27.441Z,57.70
2018-06-23T10:52:22.700Z,56.91
2018-06-23T10:54:17.894Z,57.13
2018-06-23T10:55:16.903Z,57.22
2018-06-23T10:57:14.056Z,57.32
2018-06-23T10:58:11.078Z,58.18
2018-06-23T11:00:05.262Z,56.65
2018-06-23T11:01:05.248Z,57.35
2018-06-23T11:02:59.514Z,57.25
2018-06-23T11:03:59.426Z,56.77
2018-06-23T11:05:53.612Z,56.38
2018-06-23T11:06:53.613Z,56.87
2018-06-23T11:07:54.254Z,56.77
2018-06-23T11:08:53.606Z,56.00
2018-06-23T11:09:53.628Z,55.62
2018-06-23T11:10:53.616Z,54.82
2018-06-23T11:11:53.613Z,55.20
2018-06-23T11:12:53.624Z,55.52
2018-06-23T11:13:53.636Z,55.11
2018-06-23T11:14:53.652Z,55.04
2018-06-23T11:15:53.661Z,55.52
2018-06-23T11:16:53.622Z,55.52
2018-06-23T11:17:53.661Z,55.04
2018-06-23T11:18:53.634Z,55.13
2018-06-23T11:19:53.664Z,54.94
2018-06-23T11:20:53.666Z,55.13
2018-06-23T11:21:53.642Z,55.43
2018-06-23T11:22:53.681Z,55.62
2018-06-23T11:23:53.696Z,56.55
2018-06-23T11:24:53.659Z,57.22
2018-06-23T11:25:53.652Z,57.03
2018-06-23T11:26:53.709Z,56.52
2018-06-23T11:27:53.688Z,57.20
2018-06-23T11:28:53.678Z,56.62
2018-06-23T11:29:53.649Z,57.39
2018-06-23T11:30:53.673Z,57.58
2018-06-23T11:31:53.656Z,57.39
2018-06-23T11:32:53.660Z,56.81
2018-06-23T11:33:53.688Z,55.01
2018-06-23T11:34:53.674Z,54.05
2018-06-23T11:35:53.701Z,53.19
2018-06-23T11:36:53.700Z,53.31
2018-06-23T11:37:53.693Z,53.05
2018-06-23T11:38:53.701Z,53.23
2018-06-23T11:39:53.690Z,53.05
2018-06-23T11:40:53.880Z,52.37
2018-06-23T11:41:53.688Z,52.37
2018-06-23T11:42:53.694Z,53.09
2018-06-23T11:43:53.727Z,54.05
2018-06-23T11:44:53.721Z,54.17
2018-06-23T11:45:53.700Z,54.82
2018-06-23T11:46:53.704Z,54.99
2018-06-23T11:47:53.710Z,56.33
2018-06-23T11:48:53.764Z,57.10
2018-06-23T11:49:53.720Z,57.29
2018-06-23T11:50:53.694Z,58.35
2018-06-23T11:51:53.716Z,56.98
2018-06-23T11:52:53.712Z,58.06
2018-06-23T11:53:53.730Z,57.29
2018-06-23T11:54:53.724Z,57.00
2018-06-23T11:55:53.764Z,55.88
2018-06-23T11:56:53.720Z,55.94
2018-06-23T11:57:53.765Z,55.49
2018-06-23T11:58:53.729Z,54.63
2018-06-23T11:59:53.745Z,54.85
2018-06-23T12:00:53.732Z,54.75
2018-06-23T12:01:53.783Z,53.91
2018-06-23T12:02:53.727Z,53.72
2018-06-23T12:03:53.766Z,52.78
2018-06-23T12:04:53.740Z,53.07
2018-06-23T12:05:53.796Z,52.47
2018-06-23T12:06:53.750Z,52.73
2018-06-23T12:07:53.786Z,52.27
2018-06-23T12:08:53.770Z,52.95
2018-06-23T12:09:53.737Z,53.33
2018-06-23T12:10:53.752Z,53.33
2018-06-23T12:11:53.744Z,53.53
2018-06-23T12:12:53.799Z,53.07
2018-06-23T12:13:53.777Z,52.20
2018-06-23T12:14:53.783Z,52.61
2018-06-23T12:15:53.792Z,52.13
2018-06-23T12:16:53.800Z,51.56
2018-06-23T12:17:53.790Z,50.23
2018-06-23T12:18:53.757Z,49.87
2018-06-23T12:19:53.774Z,49.60
2018-06-23T12:20:53.786Z,49.12
2018-06-23T12:21:53.782Z,49.87
2018-06-23T12:22:53.794Z,49.29
2018-06-23T12:23:53.776Z,49.96
2018-06-23T12:24:53.793Z,50.74
2018-06-23T12:25:53.775Z,49.96
2018-06-23T12:26:53.786Z,49.82
2018-06-23T12:27:53.788Z,50.62
2018-06-23T12:28:53.777Z,49.73
2018-06-23T12:29:53.798Z,50.01
2018-06-23T12:30:53.799Z,49.15
2018-06-23T12:31:53.807Z,49.17
2018-06-23T12:32:53.848Z,48.90
2018-06-23T12:33:53.798Z,48.33
2018-06-23T12:34:53.820Z,48.44
2018-06-23T12:35:53.797Z,47.87
2018-06-23T12:36:53.821Z,47.65
2018-06-23T12:37:53.813Z,48.30
2018-06-23T12:38:53.851Z,48.13
2018-06-23T12:39:53.824Z,48.81
2018-06-23T12:40:53.840Z,48.52
2018-06-23T12:41:53.821Z,48.71
2018-06-23T12:42:53.854Z,48.88
2018-06-23T12:43:53.842Z,49.91
2018-06-23T12:44:53.882Z,49.82
2018-06-23T12:45:53.855Z,49.63
2018-06-23T12:46:53.921Z,48.97
2018-06-23T12:47:53.879Z,48.88
2018-06-23T12:48:53.906Z,49.10
2018-06-23T12:49:53.896Z,49.07
2018-06-23T12:50:53.889Z,49.37
2018-06-23T12:51:53.870Z,49.84
2018-06-23T12:52:53.879Z,50.23
2018-06-23T12:53:53.897Z,49.84
2018-06-23T12:54:53.897Z,48.90
2018-06-23T12:55:53.918Z,48.35
2018-06-23T12:56:53.910Z,47.65
2018-06-23T12:57:53.944Z,47.65
2018-06-23T12:58:53.902Z,47.09
2018-06-23T12:59:53.953Z,46.54
2018-06-23T13:00:53.942Z,46.90
2018-06-23T13:01:53.973Z,45.79
2018-06-23T13:02:54.122Z,44.70
2018-06-23T13:03:53.950Z,45.18
2018-06-23T13:04:53.964Z,44.73
2018-06-23T13:05:53.956Z,44.17
2018-06-23T13:06:54.009Z,43.73
2018-06-23T13:07:54.010Z,43.66
2018-06-23T13:08:54.000Z,44.82
2018-06-23T13:09:54.001Z,44.82
2018-06-23T13:10:53.992Z,44.73
2018-06-23T13:11:54.005Z,44.73
2018-06-23T13:12:53.998Z,45.00
2018-06-23T13:13:54.011Z,45.48
2018-06-23T13:14:54.031Z,45.67
2018-06-23T13:15:54.049Z,46.13
2018-06-23T13:16:54.052Z,46.33
2018-06-23T13:17:54.062Z,46.30
2018-06-23T13:18:54.066Z,46.34
2018-06-23T13:19:54.076Z,45.67
2018-06-23T13:20:54.136Z,46.44
2018-06-23T13:21:54.080Z,46.06
2018-06-23T13:22:54.087Z,46.06